METAR

Letisková meteorologická správa METAR

Meteorologické informácie z ďalších profesionálnych meteorologických staníc SHMÚ zobrazené v tvare zodpovedajúcom pravidlám kódovania správ METAR sú uvedené v položke „METSYN

Informácie o správe METAR

27.05.2018 - 20:30 UTC

METAR LZIB 272030Z 01004KT CAVOK 20/16 Q1019=
METAR LZKZ 272030Z 03005KT CAVOK 19/16 Q1021=
METAR LZPP 272030Z AUTO 36006KT 9999 NCD 18/15 Q1020=
METAR LZSL 272030Z VRB02KT 9999 FEW060 SCT090 20/15 Q1021=
METAR LZTT 272030Z 29004KT 9999 FEW050 14/12 Q1023=
METAR LZZI 272030Z VRB02KT 9999 -SHRA SCT063CB 18/15 Q1021=

27.05.2018 - 20:00 UTC

METAR LZIB 272000Z 01004KT CAVOK 20/17 Q1019=
METAR LZKZ 272000Z VRB01KT CAVOK 19/16 Q1021=
METAR LZPP 272000Z VRB02KT CAVOK 20/15 Q1020=
METAR LZSL 272000Z 12003KT 090V170 9999 SCT056 SCT080 21/15 Q1022=
METAR LZTT 272000Z 28005KT 9999 FEW050 14/13 Q1023=
METAR LZZI 272000Z VRB02KT 9999 FEW060 FEW061CB 18/15 Q1021=

27.05.2018 - 20:00 UTC

METAR LZMC 272000Z 09002KT CAVOK 18/15 Q1020=
METAR LZPW 272000Z VRB02KT CAVOK 17/14 Q1022=

skok na menu ↑


skok na začiatok stránky ↑